createdAt,value
2019-04-30T00:01:20.014Z,8.30
2019-04-30T00:03:55.810Z,8.30
2019-04-30T00:06:28.879Z,8.30
2019-04-30T00:08:55.428Z,8.30
2019-04-30T00:11:25.360Z,8.30
2019-04-30T00:13:58.691Z,8.30
2019-04-30T00:16:26.221Z,8.30
2019-04-30T00:19:00.467Z,8.30
2019-04-30T00:21:27.316Z,8.40
2019-04-30T00:24:00.724Z,8.40
2019-04-30T00:26:27.952Z,8.40
2019-04-30T00:28:57.533Z,8.40
2019-04-30T00:31:27.563Z,8.40
2019-04-30T00:34:01.258Z,8.60
2019-04-30T00:36:34.002Z,8.60
2019-04-30T00:39:01.057Z,8.60
2019-04-30T00:41:32.240Z,8.60
2019-04-30T00:44:02.141Z,8.60
2019-04-30T00:46:31.832Z,8.50
2019-04-30T00:49:09.264Z,8.50
2019-04-30T00:51:32.645Z,8.60
2019-04-30T00:54:02.205Z,8.60
2019-04-30T00:56:32.001Z,8.60
2019-04-30T00:59:02.437Z,8.60
2019-04-30T01:01:39.270Z,8.60
2019-04-30T01:04:15.006Z,8.60
2019-04-30T01:06:46.185Z,8.60
2019-04-30T01:09:16.062Z,8.60
2019-04-30T01:11:48.076Z,8.60
2019-04-30T01:14:18.726Z,8.60
2019-04-30T01:16:49.358Z,8.50
2019-04-30T01:19:29.146Z,8.40
2019-04-30T01:21:50.910Z,8.40
2019-04-30T01:24:23.431Z,8.50
2019-04-30T01:26:52.208Z,8.40
2019-04-30T01:29:22.017Z,8.40
2019-04-30T01:31:51.636Z,8.30
2019-04-30T01:34:22.278Z,8.20
2019-04-30T01:36:52.341Z,8.20
2019-04-30T01:39:23.655Z,8.20
2019-04-30T01:41:53.439Z,8.10
2019-04-30T01:44:23.077Z,8.10
2019-04-30T01:46:52.706Z,8.10
2019-04-30T01:49:25.710Z,8.00
2019-04-30T01:51:57.428Z,8.00
2019-04-30T01:54:25.810Z,7.90
2019-04-30T01:57:02.613Z,7.80
2019-04-30T01:59:33.906Z,7.70
2019-04-30T02:02:03.596Z,7.70
2019-04-30T02:04:33.364Z,7.80
2019-04-30T02:07:02.882Z,7.80
2019-04-30T02:09:32.572Z,7.70
2019-04-30T02:12:02.016Z,7.70
2019-04-30T02:14:31.858Z,7.60
2019-04-30T02:17:01.461Z,7.60
2019-04-30T02:19:31.174Z,7.60
2019-04-30T02:22:01.195Z,7.60
2019-04-30T02:24:31.037Z,7.60
2019-04-30T02:27:00.716Z,7.50
2019-04-30T02:29:30.355Z,7.40
2019-04-30T02:32:00.569Z,7.40
2019-04-30T02:34:41.151Z,7.40
2019-04-30T02:37:22.407Z,7.40
2019-04-30T02:39:51.899Z,7.40
2019-04-30T02:42:21.805Z,7.50
2019-04-30T02:44:52.443Z,7.50
2019-04-30T02:47:24.715Z,7.50
2019-04-30T02:50:11.579Z,7.50
2019-04-30T02:52:30.166Z,7.50
2019-04-30T02:55:02.501Z,7.50
2019-04-30T02:57:32.159Z,7.50
2019-04-30T03:00:06.034Z,7.50
2019-04-30T03:02:35.734Z,7.50
2019-04-30T03:05:06.715Z,7.50
2019-04-30T03:07:36.274Z,7.50
2019-04-30T03:10:10.132Z,7.50
2019-04-30T03:12:40.554Z,7.50
2019-04-30T03:15:10.712Z,7.60
2019-04-30T03:18:00.599Z,7.60
2019-04-30T03:20:36.046Z,7.60
2019-04-30T03:23:02.551Z,7.60
2019-04-30T03:25:32.265Z,7.60
2019-04-30T03:28:01.820Z,7.60
2019-04-30T03:30:32.231Z,7.60
2019-04-30T03:33:03.132Z,7.60
2019-04-30T03:35:32.944Z,7.60
2019-04-30T03:38:02.681Z,7.60
2019-04-30T03:40:32.389Z,7.60
2019-04-30T03:43:03.165Z,7.60
2019-04-30T03:45:33.144Z,7.50
2019-04-30T03:48:02.758Z,7.50
2019-04-30T03:50:48.664Z,7.40
2019-04-30T03:53:03.804Z,7.30
2019-04-30T03:55:33.488Z,7.30
2019-04-30T03:58:03.108Z,7.30
2019-04-30T04:00:34.473Z,7.20
2019-04-30T04:03:04.054Z,7.20
2019-04-30T04:05:39.949Z,7.20
2019-04-30T04:08:19.325Z,7.20
2019-04-30T04:10:50.300Z,7.10
2019-04-30T04:13:20.733Z,7.10
2019-04-30T04:15:50.358Z,7.10
2019-04-30T04:18:20.356Z,7.10
2019-04-30T04:20:55.160Z,7.20
2019-04-30T04:23:21.316Z,7.30
2019-04-30T04:25:50.959Z,7.30
2019-04-30T04:28:20.605Z,7.40
2019-04-30T04:30:50.824Z,7.40
2019-04-30T04:33:20.854Z,7.40
2019-04-30T04:35:50.489Z,7.50
2019-04-30T04:38:20.537Z,7.50
2019-04-30T04:40:50.479Z,7.60
2019-04-30T04:43:21.124Z,7.70
2019-04-30T04:45:50.867Z,7.80
2019-04-30T04:48:23.205Z,7.80
2019-04-30T04:50:51.881Z,7.70
2019-04-30T04:53:21.533Z,7.70
2019-04-30T04:55:52.102Z,7.60
2019-04-30T04:58:21.924Z,7.60
2019-04-30T05:00:51.652Z,7.60
2019-04-30T05:03:25.676Z,7.60
2019-04-30T05:05:55.278Z,7.60
2019-04-30T05:08:25.036Z,7.70
2019-04-30T05:10:54.728Z,7.70
2019-04-30T05:13:24.303Z,7.80
2019-04-30T05:15:53.848Z,7.90
2019-04-30T05:18:23.345Z,8.00
2019-04-30T05:20:53.127Z,8.20
2019-04-30T05:23:22.856Z,8.40
2019-04-30T05:25:52.502Z,8.60
2019-04-30T05:28:22.157Z,8.80
2019-04-30T05:30:51.867Z,8.90
2019-04-30T05:33:21.571Z,9.10
2019-04-30T05:35:51.187Z,9.50
2019-04-30T05:38:20.785Z,9.80
2019-04-30T05:40:50.418Z,9.90
2019-04-30T05:43:20.007Z,10.30
2019-04-30T05:45:49.572Z,10.90
2019-04-30T05:48:19.255Z,11.40
2019-04-30T05:50:51.478Z,11.60
2019-04-30T05:53:20.092Z,12.10
2019-04-30T05:55:49.795Z,12.60
2019-04-30T05:58:19.925Z,12.40
2019-04-30T06:00:50.042Z,12.30
2019-04-30T06:03:29.726Z,12.40
2019-04-30T06:05:51.103Z,12.50
2019-04-30T06:08:22.542Z,12.30
2019-04-30T06:10:53.813Z,12.20
2019-04-30T06:13:41.547Z,13.30
2019-04-30T06:16:12.862Z,13.80
2019-04-30T06:18:42.573Z,13.20
2019-04-30T06:21:12.674Z,13.20
2019-04-30T06:23:42.332Z,12.80
2019-04-30T06:26:13.136Z,12.60
2019-04-30T06:28:43.290Z,12.40
2019-04-30T06:31:12.868Z,15.10
2019-04-30T06:33:42.711Z,20.30
2019-04-30T06:36:12.483Z,23.10
2019-04-30T06:38:42.099Z,24.90
2019-04-30T06:41:11.724Z,25.10
2019-04-30T06:43:41.457Z,25.50
2019-04-30T06:46:11.434Z,25.80
2019-04-30T06:48:41.917Z,25.90
2019-04-30T06:51:11.578Z,26.20
2019-04-30T06:53:41.381Z,26.80
2019-04-30T06:56:10.956Z,27.60
2019-04-30T06:58:41.381Z,27.60
2019-04-30T07:01:11.077Z,27.80
2019-04-30T07:03:41.763Z,27.50
2019-04-30T07:06:11.581Z,27.20
2019-04-30T07:08:54.687Z,28.50
2019-04-30T07:11:29.214Z,30.00
2019-04-30T07:14:00.373Z,30.40
2019-04-30T07:16:30.061Z,32.70
2019-04-30T07:18:59.686Z,34.10
2019-04-30T07:21:31.690Z,33.70
2019-04-30T07:24:00.572Z,35.00
2019-04-30T07:26:30.113Z,34.90
2019-04-30T07:29:02.565Z,35.70
2019-04-30T07:31:31.971Z,35.10
2019-04-30T07:34:01.637Z,35.00
2019-04-30T07:36:45.956Z,36.40
2019-04-30T07:39:02.894Z,36.80
2019-04-30T07:41:32.857Z,37.20
2019-04-30T07:44:02.424Z,37.60
2019-04-30T07:46:35.253Z,38.50
2019-04-30T07:49:03.175Z,38.40
2019-04-30T07:51:37.857Z,38.50
2019-04-30T07:54:05.053Z,37.80
2019-04-30T07:56:38.002Z,37.10
2019-04-30T07:59:05.936Z,37.40
2019-04-30T08:01:35.525Z,37.80
2019-04-30T08:04:13.066Z,38.60
2019-04-30T08:06:43.822Z,36.80
2019-04-30T08:09:13.549Z,36.60
2019-04-30T08:11:43.824Z,37.40
2019-04-30T08:14:13.457Z,37.10
2019-04-30T08:16:43.084Z,35.90
2019-04-30T08:19:13.959Z,34.50
2019-04-30T08:21:43.541Z,35.20
2019-04-30T08:24:14.242Z,35.70
2019-04-30T08:26:43.978Z,34.50
2019-04-30T08:29:13.689Z,32.30
2019-04-30T08:31:43.318Z,28.40
2019-04-30T08:34:13.012Z,26.10
2019-04-30T08:36:42.719Z,24.30
2019-04-30T08:39:12.564Z,23.40
2019-04-30T08:41:42.176Z,23.00
2019-04-30T08:44:11.772Z,23.50
2019-04-30T08:46:41.357Z,23.90
2019-04-30T08:49:11.294Z,23.90
2019-04-30T08:51:41.195Z,23.60
2019-04-30T08:54:11.141Z,23.30
2019-04-30T08:56:40.844Z,23.00
2019-04-30T08:59:11.262Z,23.20
2019-04-30T09:01:41.055Z,23.00
2019-04-30T09:04:10.758Z,23.20
2019-04-30T09:06:40.386Z,23.00
2019-04-30T09:09:11.824Z,22.90
2019-04-30T09:11:51.823Z,23.40
2019-04-30T09:14:12.912Z,24.00
2019-04-30T09:16:42.694Z,24.50
2019-04-30T09:19:13.896Z,24.10
2019-04-30T09:21:43.447Z,24.40
2019-04-30T09:24:13.087Z,24.40
2019-04-30T09:26:42.566Z,24.10
2019-04-30T09:29:12.165Z,23.30
2019-04-30T09:31:42.771Z,22.80
2019-04-30T09:34:17.004Z,22.40
2019-04-30T09:36:43.551Z,22.60
2019-04-30T09:39:13.369Z,22.80
2019-04-30T09:41:43.104Z,23.00
2019-04-30T09:44:12.786Z,22.70
2019-04-30T09:46:42.408Z,22.70
2019-04-30T09:49:12.034Z,23.00
2019-04-30T09:51:41.790Z,23.20
2019-04-30T09:54:12.652Z,23.10
2019-04-30T09:56:42.998Z,22.60
2019-04-30T09:59:12.643Z,22.70
2019-04-30T10:01:42.428Z,22.50
2019-04-30T10:04:12.617Z,22.30
2019-04-30T10:06:42.665Z,22.60
2019-04-30T10:09:14.220Z,22.80
2019-04-30T10:11:54.458Z,22.80
2019-04-30T10:14:24.155Z,23.50
2019-04-30T10:17:01.064Z,23.50
2019-04-30T10:19:30.909Z,23.60
2019-04-30T10:22:00.664Z,24.20
2019-04-30T10:24:30.261Z,24.20
2019-04-30T10:27:01.136Z,24.00
2019-04-30T10:29:31.069Z,23.70
2019-04-30T10:32:00.759Z,24.10
2019-04-30T10:34:30.368Z,24.00
2019-04-30T10:37:02.865Z,23.90
2019-04-30T10:39:31.615Z,23.80
2019-04-30T10:42:01.444Z,24.20
2019-04-30T10:44:31.235Z,24.30
2019-04-30T10:47:00.939Z,24.30
2019-04-30T10:49:30.552Z,24.50
2019-04-30T10:52:01.156Z,24.60
2019-04-30T10:54:30.924Z,25.00
2019-04-30T10:57:00.596Z,25.00
2019-04-30T10:59:30.148Z,24.60
2019-04-30T11:01:59.917Z,24.60
2019-04-30T11:04:29.405Z,24.70
2019-04-30T11:07:00.531Z,24.80
2019-04-30T11:09:31.064Z,24.60
2019-04-30T11:12:02.985Z,24.50
2019-04-30T11:14:32.388Z,24.40
2019-04-30T11:17:02.148Z,24.00
2019-04-30T11:19:32.145Z,24.10
2019-04-30T11:22:02.241Z,24.10
2019-04-30T11:24:37.924Z,24.10
2019-04-30T11:27:03.811Z,23.60
2019-04-30T11:29:33.926Z,23.80
2019-04-30T11:32:11.525Z,24.10
2019-04-30T11:34:41.238Z,24.30
2019-04-30T11:37:11.424Z,23.80
2019-04-30T11:39:41.165Z,23.90
2019-04-30T11:42:10.954Z,24.10
2019-04-30T11:44:40.858Z,24.20
2019-04-30T11:47:19.689Z,24.10
2019-04-30T11:49:49.290Z,24.30
2019-04-30T11:52:19.117Z,24.30
2019-04-30T11:54:54.176Z,24.50
2019-04-30T11:57:21.207Z,24.70
2019-04-30T11:59:51.005Z,25.20
2019-04-30T12:02:26.505Z,25.20
2019-04-30T12:04:56.188Z,25.90
2019-04-30T12:07:31.179Z,26.00
2019-04-30T12:10:09.481Z,25.80
2019-04-30T12:12:39.274Z,26.20
2019-04-30T12:15:09.433Z,26.10
2019-04-30T12:17:40.068Z,26.10
2019-04-30T12:20:10.488Z,26.00
2019-04-30T12:22:40.181Z,25.70
2019-04-30T12:25:10.593Z,25.90
2019-04-30T12:27:41.837Z,25.40
2019-04-30T12:30:12.274Z,25.20
2019-04-30T12:32:42.048Z,25.70
2019-04-30T12:35:12.318Z,25.70
2019-04-30T12:37:41.953Z,26.00
2019-04-30T12:40:25.801Z,26.20
2019-04-30T12:42:43.243Z,25.90
2019-04-30T12:45:13.226Z,26.10
2019-04-30T12:47:44.475Z,25.80
2019-04-30T12:50:22.586Z,25.70
2019-04-30T12:53:05.670Z,25.60
2019-04-30T12:55:39.106Z,25.50
2019-04-30T12:58:09.782Z,25.80
2019-04-30T13:00:39.548Z,25.70
2019-04-30T13:03:09.040Z,26.00
2019-04-30T13:05:39.612Z,26.00
2019-04-30T13:08:10.156Z,25.70
2019-04-30T13:10:40.616Z,25.80
2019-04-30T13:13:11.004Z,25.90
2019-04-30T13:15:41.269Z,25.50
2019-04-30T13:18:10.907Z,25.30
2019-04-30T13:20:40.612Z,25.50
2019-04-30T13:23:10.205Z,25.60
2019-04-30T13:25:50.789Z,25.80
2019-04-30T13:28:12.815Z,25.70
2019-04-30T13:30:43.041Z,25.20
2019-04-30T13:33:14.386Z,25.10
2019-04-30T13:35:44.022Z,25.10
2019-04-30T13:38:21.312Z,25.20
2019-04-30T13:41:01.539Z,25.40
2019-04-30T13:43:48.769Z,25.90
2019-04-30T13:46:18.596Z,26.40
2019-04-30T13:48:48.287Z,26.40
2019-04-30T13:51:18.063Z,26.50
2019-04-30T13:53:47.812Z,26.30
2019-04-30T13:56:19.985Z,26.30
2019-04-30T13:58:49.070Z,25.80
2019-04-30T14:01:21.425Z,25.60
2019-04-30T14:04:08.894Z,25.90
2019-04-30T14:06:40.246Z,25.50
2019-04-30T14:09:11.452Z,24.60
2019-04-30T14:11:41.029Z,24.50
2019-04-30T14:14:10.882Z,24.80
2019-04-30T14:16:40.449Z,24.90
2019-04-30T14:19:10.131Z,24.80
2019-04-30T14:21:39.666Z,24.80
2019-04-30T14:24:09.543Z,24.40
2019-04-30T14:26:40.360Z,23.60
2019-04-30T14:29:11.094Z,23.10
2019-04-30T14:31:40.663Z,22.90
2019-04-30T14:34:10.415Z,22.70
2019-04-30T14:36:40.189Z,22.60
2019-04-30T14:39:14.636Z,22.50
2019-04-30T14:41:41.978Z,22.30
2019-04-30T14:44:26.706Z,22.20
2019-04-30T14:47:11.672Z,22.10
2019-04-30T14:49:41.503Z,22.00
2019-04-30T14:52:11.737Z,21.80
2019-04-30T14:54:58.857Z,21.90
2019-04-30T14:57:51.090Z,22.00
2019-04-30T15:00:32.592Z,22.10
2019-04-30T15:03:09.745Z,22.30
2019-04-30T15:05:46.960Z,22.40
2019-04-30T15:08:10.679Z,22.30
2019-04-30T15:10:40.587Z,22.40
2019-04-30T15:13:10.375Z,22.60
2019-04-30T15:15:39.941Z,22.50
2019-04-30T15:18:09.690Z,22.40
2019-04-30T15:20:39.925Z,22.40
2019-04-30T15:23:29.697Z,22.30
2019-04-30T15:25:59.328Z,22.50
2019-04-30T15:28:32.452Z,22.30
2019-04-30T15:31:00.158Z,22.50
2019-04-30T15:33:34.424Z,22.40
2019-04-30T15:36:04.914Z,22.60
2019-04-30T15:38:52.332Z,22.60
2019-04-30T15:41:22.242Z,22.60
2019-04-30T15:43:51.896Z,22.60
2019-04-30T15:46:21.533Z,22.90
2019-04-30T15:48:51.202Z,22.90
2019-04-30T15:51:20.817Z,22.60
2019-04-30T15:53:50.491Z,22.40
2019-04-30T15:56:20.100Z,22.40
2019-04-30T15:58:55.445Z,22.30
2019-04-30T16:01:25.164Z,22.30
2019-04-30T16:03:57.166Z,22.30
2019-04-30T16:06:28.476Z,22.20
2019-04-30T16:09:00.021Z,22.10
2019-04-30T16:11:43.164Z,22.00
2019-04-30T16:14:26.406Z,21.90
2019-04-30T16:17:03.381Z,21.90
2019-04-30T16:19:33.163Z,21.90
2019-04-30T16:22:02.738Z,21.70
2019-04-30T16:24:32.509Z,21.70
2019-04-30T16:27:02.054Z,21.60
2019-04-30T16:29:31.753Z,21.60
2019-04-30T16:32:01.506Z,21.40
2019-04-30T16:34:31.220Z,21.50
2019-04-30T16:37:00.958Z,21.60
2019-04-30T16:39:31.556Z,21.50
2019-04-30T16:42:01.277Z,21.50
2019-04-30T16:44:31.904Z,21.40
2019-04-30T16:47:13.118Z,21.30
2019-04-30T16:49:32.819Z,21.20
2019-04-30T16:52:02.600Z,21.10
2019-04-30T16:54:33.715Z,20.80
2019-04-30T16:57:06.804Z,20.70
2019-04-30T16:59:38.926Z,20.70
2019-04-30T17:02:09.427Z,20.70
2019-04-30T17:04:43.510Z,20.60
2019-04-30T17:07:18.755Z,20.50
2019-04-30T17:09:50.983Z,20.50
2019-04-30T17:12:29.379Z,20.60
2019-04-30T17:15:19.136Z,20.50
2019-04-30T17:17:49.646Z,20.50
2019-04-30T17:20:20.916Z,20.40
2019-04-30T17:22:51.834Z,20.30
2019-04-30T17:25:21.544Z,20.20
2019-04-30T17:27:51.253Z,20.10
2019-04-30T17:30:21.064Z,20.10
2019-04-30T17:32:50.775Z,20.00
2019-04-30T17:35:20.428Z,19.90
2019-04-30T17:37:50.096Z,19.80
2019-04-30T17:40:21.816Z,19.70
2019-04-30T17:42:51.518Z,19.60
2019-04-30T17:45:23.443Z,19.60
2019-04-30T17:47:53.570Z,19.50
2019-04-30T17:50:24.526Z,19.40
2019-04-30T17:52:54.335Z,19.30
2019-04-30T17:55:24.009Z,19.20
2019-04-30T17:57:55.027Z,19.20
2019-04-30T18:00:29.178Z,19.10
2019-04-30T18:02:58.360Z,19.00
2019-04-30T18:05:29.253Z,18.90
2019-04-30T18:07:59.210Z,18.80
2019-04-30T18:10:29.626Z,18.70
2019-04-30T18:13:00.373Z,18.60
2019-04-30T18:15:31.160Z,18.50
2019-04-30T18:18:02.362Z,18.40
2019-04-30T18:20:33.604Z,18.30
2019-04-30T18:23:12.535Z,18.20
2019-04-30T18:25:46.737Z,18.10
2019-04-30T18:28:16.391Z,18.10
2019-04-30T18:30:46.019Z,18.00
2019-04-30T18:33:15.766Z,17.90
2019-04-30T18:35:45.469Z,17.80
2019-04-30T18:38:17.730Z,17.80
2019-04-30T18:40:49.535Z,17.70
2019-04-30T18:43:20.698Z,17.60
2019-04-30T18:45:53.621Z,17.60
2019-04-30T18:48:23.454Z,17.50
2019-04-30T18:50:55.036Z,17.40
2019-04-30T18:53:28.452Z,17.40
2019-04-30T18:55:59.524Z,17.30
2019-04-30T18:58:39.239Z,17.30
2019-04-30T19:01:00.849Z,17.30
2019-04-30T19:03:31.746Z,17.20
2019-04-30T19:06:04.408Z,17.20
2019-04-30T19:08:35.709Z,17.20
2019-04-30T19:11:22.201Z,17.10
2019-04-30T19:13:53.407Z,17.10
2019-04-30T19:16:42.130Z,17.10
2019-04-30T19:19:22.367Z,17.10
2019-04-30T19:21:54.866Z,17.00
2019-04-30T19:24:24.998Z,17.00
2019-04-30T19:26:54.751Z,16.90
2019-04-30T19:29:24.381Z,16.90
2019-04-30T19:31:54.405Z,16.90
2019-04-30T19:34:24.037Z,16.80
2019-04-30T19:36:53.750Z,16.70
2019-04-30T19:39:24.427Z,16.70
2019-04-30T19:41:54.141Z,16.60
2019-04-30T19:44:23.894Z,16.60
2019-04-30T19:46:54.172Z,16.60
2019-04-30T19:49:23.775Z,16.50
2019-04-30T19:52:05.597Z,16.50
2019-04-30T19:54:24.632Z,16.40
2019-04-30T19:56:54.262Z,16.30
2019-04-30T19:59:23.905Z,16.20
2019-04-30T20:01:54.207Z,16.10
2019-04-30T20:04:33.040Z,16.00
2019-04-30T20:06:59.047Z,15.90
2019-04-30T20:09:26.604Z,15.90
2019-04-30T20:11:56.998Z,15.80
2019-04-30T20:14:26.825Z,15.70
2019-04-30T20:16:56.459Z,15.70
2019-04-30T20:19:26.131Z,15.60
2019-04-30T20:21:55.910Z,15.60
2019-04-30T20:24:25.484Z,15.50
2019-04-30T20:27:06.419Z,15.50
2019-04-30T20:29:28.825Z,15.40
2019-04-30T20:31:59.103Z,15.30
2019-04-30T20:34:29.393Z,15.20
2019-04-30T20:37:00.322Z,15.20
2019-04-30T20:39:32.837Z,15.00
2019-04-30T20:42:02.673Z,15.00
2019-04-30T20:44:32.359Z,14.90
2019-04-30T20:47:01.966Z,14.90
2019-04-30T20:49:31.630Z,14.90
2019-04-30T20:52:01.315Z,14.90
2019-04-30T20:54:31.022Z,14.90
2019-04-30T20:57:00.555Z,14.90
2019-04-30T20:59:31.513Z,14.90
2019-04-30T21:02:01.277Z,14.80
2019-04-30T21:04:30.988Z,14.80
2019-04-30T21:07:00.634Z,14.90
2019-04-30T21:09:30.278Z,14.90
2019-04-30T21:11:59.882Z,14.90
2019-04-30T21:14:29.596Z,14.90
2019-04-30T21:16:59.202Z,14.80
2019-04-30T21:19:29.441Z,14.80
2019-04-30T21:21:59.581Z,14.70
2019-04-30T21:24:29.332Z,14.70
2019-04-30T21:26:59.067Z,14.70
2019-04-30T21:29:29.574Z,14.80
2019-04-30T21:32:01.039Z,14.80
2019-04-30T21:34:34.886Z,14.80
2019-04-30T21:37:04.639Z,14.70
2019-04-30T21:39:34.501Z,14.70
2019-04-30T21:42:04.142Z,14.70
2019-04-30T21:44:33.801Z,14.60
2019-04-30T21:47:03.505Z,14.70
2019-04-30T21:49:33.128Z,14.60
2019-04-30T21:52:02.843Z,14.60
2019-04-30T21:54:32.609Z,14.60
2019-04-30T21:57:02.345Z,14.50
2019-04-30T21:59:31.917Z,14.50
2019-04-30T22:02:01.698Z,14.50
2019-04-30T22:04:31.379Z,14.50
2019-04-30T22:07:01.086Z,14.50
2019-04-30T22:09:30.800Z,14.50
2019-04-30T22:12:00.821Z,14.40
2019-04-30T22:14:30.423Z,14.30
2019-04-30T22:17:00.267Z,14.30
2019-04-30T22:19:30.057Z,14.30
2019-04-30T22:21:59.687Z,14.30
2019-04-30T22:24:30.530Z,14.30
2019-04-30T22:27:04.304Z,14.20
2019-04-30T22:29:39.218Z,14.20
2019-04-30T22:32:05.287Z,14.20
2019-04-30T22:34:34.893Z,14.10
2019-04-30T22:37:04.576Z,14.00
2019-04-30T22:39:39.560Z,13.90
2019-04-30T22:42:30.650Z,13.90
2019-04-30T22:45:01.387Z,13.80
2019-04-30T22:47:32.295Z,13.70
2019-04-30T22:50:02.108Z,13.70
2019-04-30T22:52:31.729Z,13.70
2019-04-30T22:55:01.352Z,13.70
2019-04-30T22:57:31.030Z,13.60
2019-04-30T23:00:00.779Z,13.50
2019-04-30T23:02:36.294Z,13.40
2019-04-30T23:05:08.077Z,13.30
2019-04-30T23:07:37.776Z,13.30
2019-04-30T23:10:08.007Z,13.20
2019-04-30T23:12:38.918Z,13.20
2019-04-30T23:15:08.832Z,13.20
2019-04-30T23:17:38.443Z,13.10
2019-04-30T23:20:08.240Z,13.00
2019-04-30T23:22:37.996Z,13.00
2019-04-30T23:25:07.565Z,13.00
2019-04-30T23:27:37.197Z,12.90
2019-04-30T23:30:07.652Z,12.90
2019-04-30T23:32:37.190Z,12.80
2019-04-30T23:35:06.915Z,12.70
2019-04-30T23:37:36.564Z,12.70
2019-04-30T23:40:24.048Z,12.70
2019-04-30T23:42:54.477Z,12.70
2019-04-30T23:45:24.487Z,12.70
2019-04-30T23:47:54.218Z,12.60
2019-04-30T23:50:23.822Z,12.70
2019-04-30T23:52:53.487Z,12.60
2019-04-30T23:55:23.015Z,12.50
2019-04-30T23:57:52.542Z,12.50
